Terminal Aerodrome Forecast
Issued by NWS Buffalo, NY

Home | Current Version | Previous Version | Text Only | Print | Product List | Glossary On
Versions: 1 2 3 4 5 6 7 8 9 10 11 12 13 14 15 16 17 18 19 20 21 22 23 24 25 26 27
000
FTUS41 KBUF 170900 AAA
TAFART
TAF AMD
KART 170903Z 1709/1806 VRB04KT P6SM SKC
     FM171300 22004KT P6SM FEW200
     FM171600 25008KT P6SM SCT040
     FM171800 24011KT P6SM SCT200
     FM180100 20005KT P6SM BKN100=

USA.gov is the U.S. government's official web portal to all federal, state and local government web resources and services.